• Join FlightAware (Why Join?)
  • Login
  • US Flag GB Flag 
15:14 EST


 

Airport Tracker/Info


-or-


 

Live Flight TrackerFlight Track Log ✈ EJM685 ✈ 14-Jul-2013 ✈ KHTO - KTEB

Flight Track Log - Related Links

Times and Time Zones

All times are in EDT time to prevent confusion due to time zone crossing. See the EJM685 flight status page for this flight to view local times or setup timezone preferences in your user account.

Time Position Orientation Groundspeed Altitude Reporting Facility
EDT Latitude Longitude Course Direction KTS MPH feet Rate Location/Type
16:32 40.9694 -73.3253 264° West 139 160 2,500  Level Boston Center
16:33 40.9647 -73.3883 264° West 144 166 2,000 -300 Descending Boston Center
16:34 40.9600 -73.4378 263° West 144 166 2,000  Level Boston Center
16:35 40.9575 -73.4900 266° West 144 166 2,000  Level Boston Center
16:36 40.9406 -73.5308 241° Southwest 139 160 2,000  Level Boston Center
16:37 40.9172 -73.5717 233° Southwest 139 160 2,000  Level Boston Center
16:38 40.8958 -73.6125 235° Southwest 139 160 2,000  Level Boston Center
16:39 40.8725 -73.6561 235° Southwest 144 166 2,000  Level Boston Center
16:40 40.8511 -73.6967 235° Southwest 144 166 2,000  Level Boston Center
16:41 40.8256 -73.7511 238° Southwest 149 171 2,000  Level Boston Center
16:42 40.8042 -73.7892 233° Southwest 149 171 2,000  Level Boston Center
16:43 40.7911 -73.8381 251° West 149 171 2,000  Level Boston Center
16:44 40.7761 -73.8872 248° West 144 166 2,000 1,980 Level Boston Center
16:45 41.2167 -73.0667 54° Northeast 254 292 6,000 1,980 Climbing New York TRACON
16:46 41.2333 -73.1667 283° West 243 280 6,000  Level New York TRACON
16:47 41.2333 -73.2500 270° West 249 287 6,000 -240 Level New York TRACON
16:48 41.2500 -73.3333 285° West 244 281 5,600 -540 Descending New York TRACON
16:49 41.2667 -73.4333 283° West 245 282 5,000 -300 Descending New York TRACON
16:50 41.2833 -73.5167 285° West 246 283 5,000  Level New York TRACON
16:51 41.3000 -73.6000 285° West 244 281 5,000  Level New York TRACON
16:53 41.2667 -73.7833 256° West 257 296 5,000  Level New York TRACON
16:55 41.2500 -73.9833 264° West 257 296 5,000  Level New York TRACON
16:57 41.2268 -74.1319 262° West  Level FlightAware Approximate
16:57 41.2167 -74.1667 262° West 253 291 5,000  Level New York TRACON
16:58 41.2167 -74.2500 270° West 247 284 5,000 -240 Level New York TRACON
17:00 41.1667 -74.4167 248° West 255 293 4,300 -480 Descending New York TRACON
17:01 41.1000 -74.4167 180° South 260 299 3,700 -660 Descending New York TRACON
17:02 41.0833 -74.3333 105° East 258 297 3,000 -360 Descending New York TRACON
17:03 41.0667 -74.2500 105° East 233 268 3,000  Level New York TRACON
17:04 41.0500 -74.1667 105° East 231 266 3,000 -120 Level New York TRACON
17:05 41.0333 -74.1000 108° East 197 227 2,800 -540 Descending New York TRACON
17:06 41.0000 -74.0500 131° Southeast 184 212 2,000 -420 Descending New York TRACON
17:07 40.9500 -74.0500 180° South 165 190 2,000 -540 Level New York TRACON
17:09 40.8833 -74.0500 180° South 127 146 500 -780 Descending New York TRACON
17:11 40.8500 -74.0500 118° Southeast  Level FlightAware Approximate
17:18 40.8501 -74.0608 118° Southeast  Level Estimated